sensor_id;sensor_type;location;lat;lon;timestamp;pressure;altitude;pressure_sealevel;temperature
68939;BMP180;59064;45.294;11.816;2022-09-03T00:02:38;101299.40;;;18.70
68939;BMP180;59064;45.294;11.816;2022-09-03T00:07:55;101286.40;;;18.60
68939;BMP180;59064;45.294;11.816;2022-09-03T00:10:52;101284.80;;;18.56
68939;BMP180;59064;45.294;11.816;2022-09-03T00:13:26;101278.40;;;18.50
68939;BMP180;59064;45.294;11.816;2022-09-03T00:15:56;101278.40;;;18.40
68939;BMP180;59064;45.294;11.816;2022-09-03T00:18:26;101274.20;;;18.40
68939;BMP180;59064;45.294;11.816;2022-09-03T00:21:07;101272.80;;;18.30
68939;BMP180;59064;45.294;11.816;2022-09-03T00:23:40;101274.00;;;18.30
68939;BMP180;59064;45.294;11.816;2022-09-03T00:29:05;101278.60;;;18.20
68939;BMP180;59064;45.294;11.816;2022-09-03T00:34:35;101282.60;;;18.00
68939;BMP180;59064;45.294;11.816;2022-09-03T00:37:04;101286.80;;;18.00
68939;BMP180;59064;45.294;11.816;2022-09-03T00:39:30;101286.40;;;18.00
68939;BMP180;59064;45.294;11.816;2022-09-03T00:51:25;101295.20;;;18.10
68939;BMP180;59064;45.294;11.816;2022-09-03T00:54:13;101303.20;;;18.10
68939;BMP180;59064;45.294;11.816;2022-09-03T01:00:15;101316.60;;;17.90
68939;BMP180;59064;45.294;11.816;2022-09-03T01:14:56;101319.00;;;17.80
68939;BMP180;59064;45.294;11.816;2022-09-03T01:23:37;101315.60;;;17.60
68939;BMP180;59064;45.294;11.816;2022-09-03T01:32:21;101319.20;;;17.70
68939;BMP180;59064;45.294;11.816;2022-09-03T01:43:22;101319.40;;;17.60
68939;BMP180;59064;45.294;11.816;2022-09-03T01:45:59;101326.60;;;17.60
68939;BMP180;59064;45.294;11.816;2022-09-03T01:51:24;101319.40;;;17.60
68939;BMP180;59064;45.294;11.816;2022-09-03T01:57:27;101308.00;;;17.60
68939;BMP180;59064;45.294;11.816;2022-09-03T02:00:10;101309.20;;;17.60
68939;BMP180;59064;45.294;11.816;2022-09-03T02:02:43;101307.60;;;17.60
68939;BMP180;59064;45.294;11.816;2022-09-03T02:05:16;101307.20;;;17.60
68939;BMP180;59064;45.294;11.816;2022-09-03T02:08:00;101305.80;;;17.60
68939;BMP180;59064;45.294;11.816;2022-09-03T02:10:52;101315.00;;;17.58
68939;BMP180;59064;45.294;11.816;2022-09-03T02:13:25;101317.40;;;17.50
68939;BMP180;59064;45.294;11.816;2022-09-03T02:15:55;101321.60;;;17.50
68939;BMP180;59064;45.294;11.816;2022-09-03T02:18:28;101311.60;;;17.40
68939;BMP180;59064;45.294;11.816;2022-09-03T02:20:56;101321.20;;;17.32
68939;BMP180;59064;45.294;11.816;2022-09-03T02:23:24;101322.80;;;17.30
68939;BMP180;59064;45.294;11.816;2022-09-03T02:26:00;101318.80;;;17.30
68939;BMP180;59064;45.294;11.816;2022-09-03T02:28:31;101313.40;;;17.32
68939;BMP180;59064;45.294;11.816;2022-09-03T02:30:57;101309.60;;;17.30
68939;BMP180;59064;45.294;11.816;2022-09-03T02:33:23;101306.80;;;17.30
68939;BMP180;59064;45.294;11.816;2022-09-03T02:35:50;101302.80;;;17.30
68939;BMP180;59064;45.294;11.816;2022-09-03T02:38:20;101297.60;;;17.30
68939;BMP180;59064;45.294;11.816;2022-09-03T02:40:46;101294.40;;;17.28
68939;BMP180;59064;45.294;11.816;2022-09-03T02:43:23;101295.20;;;17.20
68939;BMP180;59064;45.294;11.816;2022-09-03T02:45:58;101294.00;;;17.20
68939;BMP180;59064;45.294;11.816;2022-09-03T02:48:25;101289.60;;;17.20
68939;BMP180;59064;45.294;11.816;2022-09-03T02:50:51;101289.40;;;17.20
68939;BMP180;59064;45.294;11.816;2022-09-03T02:53:16;101291.20;;;17.20
68939;BMP180;59064;45.294;11.816;2022-09-03T02:55:42;101293.40;;;17.20
68939;BMP180;59064;45.294;11.816;2022-09-03T02:58:08;101296.00;;;17.20
68939;BMP180;59064;45.294;11.816;2022-09-03T03:00:35;101297.00;;;17.20
68939;BMP180;59064;45.294;11.816;2022-09-03T03:03:02;101298.20;;;17.30
68939;BMP180;59064;45.294;11.816;2022-09-03T03:05:51;101296.80;;;17.40
68939;BMP180;59064;45.294;11.816;2022-09-03T03:08:19;101291.80;;;17.40
68939;BMP180;59064;45.294;11.816;2022-09-03T03:10:48;101294.40;;;17.48
68939;BMP180;59064;45.294;11.816;2022-09-03T03:13:16;101299.40;;;17.50
68939;BMP180;59064;45.294;11.816;2022-09-03T03:15:43;101304.80;;;17.50
68939;BMP180;59064;45.294;11.816;2022-09-03T03:18:10;101299.20;;;17.60
68939;BMP180;59064;45.294;11.816;2022-09-03T03:20:40;101291.00;;;17.60
68939;BMP180;59064;45.294;11.816;2022-09-03T03:23:07;101293.20;;;17.60
68939;BMP180;59064;45.294;11.816;2022-09-03T03:25:34;101293.20;;;17.60
68939;BMP180;59064;45.294;11.816;2022-09-03T03:28:01;101291.40;;;17.60
68939;BMP180;59064;45.294;11.816;2022-09-03T03:30:28;101291.40;;;17.60
68939;BMP180;59064;45.294;11.816;2022-09-03T03:32:54;101293.60;;;17.60
68939;BMP180;59064;45.294;11.816;2022-09-03T03:35:20;101293.20;;;17.60
68939;BMP180;59064;45.294;11.816;2022-09-03T03:37:46;101298.00;;;17.60
68939;BMP180;59064;45.294;11.816;2022-09-03T03:40:13;101303.60;;;17.64
68939;BMP180;59064;45.294;11.816;2022-09-03T03:42:41;101303.80;;;17.68
68939;BMP180;59064;45.294;11.816;2022-09-03T03:45:08;101306.00;;;17.62
68939;BMP180;59064;45.294;11.816;2022-09-03T03:47:35;101302.60;;;17.64
68939;BMP180;59064;45.294;11.816;2022-09-03T03:50:03;101297.60;;;17.60
68939;BMP180;59064;45.294;11.816;2022-09-03T03:52:29;101294.40;;;17.68
68939;BMP180;59064;45.294;11.816;2022-09-03T03:54:54;101293.60;;;17.70
68939;BMP180;59064;45.294;11.816;2022-09-03T03:57:21;101292.20;;;17.70
68939;BMP180;59064;45.294;11.816;2022-09-03T03:59:49;101286.00;;;17.70
68939;BMP180;59064;45.294;11.816;2022-09-03T04:02:17;101293.80;;;17.70
68939;BMP180;59064;45.294;11.816;2022-09-03T04:04:43;101290.40;;;17.68
68939;BMP180;59064;45.294;11.816;2022-09-03T04:07:09;101296.00;;;17.60
68939;BMP180;59064;45.294;11.816;2022-09-03T04:09:34;101300.20;;;17.60
68939;BMP180;59064;45.294;11.816;2022-09-03T04:12:00;101302.40;;;17.60
68939;BMP180;59064;45.294;11.816;2022-09-03T04:14:27;101306.40;;;17.50
68939;BMP180;59064;45.294;11.816;2022-09-03T04:16:53;101305.80;;;17.50
68939;BMP180;59064;45.294;11.816;2022-09-03T04:19:19;101303.60;;;17.50
68939;BMP180;59064;45.294;11.816;2022-09-03T04:21:45;101293.60;;;17.50
68939;BMP180;59064;45.294;11.816;2022-09-03T04:24:11;101285.20;;;17.50
68939;BMP180;59064;45.294;11.816;2022-09-03T04:26:37;101280.60;;;17.50
68939;BMP180;59064;45.294;11.816;2022-09-03T04:29:08;101287.00;;;17.50
68939;BMP180;59064;45.294;11.816;2022-09-03T04:31:35;101290.80;;;17.50
68939;BMP180;59064;45.294;11.816;2022-09-03T04:34:01;101287.20;;;17.50
68939;BMP180;59064;45.294;11.816;2022-09-03T04:36:30;101290.40;;;17.50
68939;BMP180;59064;45.294;11.816;2022-09-03T04:38:59;101291.80;;;17.50
68939;BMP180;59064;45.294;11.816;2022-09-03T04:41:28;101296.20;;;17.50
68939;BMP180;59064;45.294;11.816;2022-09-03T04:43:58;101298.80;;;17.52
68939;BMP180;59064;45.294;11.816;2022-09-03T04:46:26;101296.60;;;17.60
68939;BMP180;59064;45.294;11.816;2022-09-03T04:48:56;101291.80;;;17.60
68939;BMP180;59064;45.294;11.816;2022-09-03T04:51:25;101294.60;;;17.60
68939;BMP180;59064;45.294;11.816;2022-09-03T04:53:59;101293.00;;;17.70
68939;BMP180;59064;45.294;11.816;2022-09-03T04:56:30;101301.80;;;17.80
68939;BMP180;59064;45.294;11.816;2022-09-03T04:58:59;101298.60;;;17.84
68939;BMP180;59064;45.294;11.816;2022-09-03T05:01:36;101293.20;;;17.90
68939;BMP180;59064;45.294;11.816;2022-09-03T05:04:03;101284.40;;;17.96
68939;BMP180;59064;45.294;11.816;2022-09-03T05:06:30;101281.40;;;18.00
68939;BMP180;59064;45.294;11.816;2022-09-03T05:08:57;101278.40;;;18.10
68939;BMP180;59064;45.294;11.816;2022-09-03T05:11:25;101273.00;;;18.18
68939;BMP180;59064;45.294;11.816;2022-09-03T05:13:54;101272.60;;;18.20
68939;BMP180;59064;45.294;11.816;2022-09-03T05:16:22;101273.20;;;18.30
68939;BMP180;59064;45.294;11.816;2022-09-03T05:18:52;101287.60;;;18.38
68939;BMP180;59064;45.294;11.816;2022-09-03T05:21:19;101293.80;;;18.44
68939;BMP180;59064;45.294;11.816;2022-09-03T05:23:47;101298.80;;;18.50
68939;BMP180;59064;45.294;11.816;2022-09-03T05:26:30;101301.80;;;18.60
68939;BMP180;59064;45.294;11.816;2022-09-03T05:28:59;101296.60;;;18.66
68939;BMP180;59064;45.294;11.816;2022-09-03T05:31:28;101298.40;;;18.70
68939;BMP180;59064;45.294;11.816;2022-09-03T05:33:58;101302.40;;;18.80
68939;BMP180;59064;45.294;11.816;2022-09-03T05:36:31;101300.80;;;18.80
68939;BMP180;59064;45.294;11.816;2022-09-03T05:38:59;101299.60;;;18.90
68939;BMP180;59064;45.294;11.816;2022-09-03T05:41:25;101303.40;;;18.96
68939;BMP180;59064;45.294;11.816;2022-09-03T05:43:53;101308.00;;;19.00
68939;BMP180;59064;45.294;11.816;2022-09-03T05:46:29;101308.60;;;19.00
68939;BMP180;59064;45.294;11.816;2022-09-03T05:49:06;101304.20;;;19.10
68939;BMP180;59064;45.294;11.816;2022-09-03T05:51:34;101303.20;;;19.20
68939;BMP180;59064;45.294;11.816;2022-09-03T05:54:00;101302.40;;;19.20
68939;BMP180;59064;45.294;11.816;2022-09-03T05:56:29;101307.40;;;19.20
68939;BMP180;59064;45.294;11.816;2022-09-03T05:58:59;101305.60;;;19.30
68939;BMP180;59064;45.294;11.816;2022-09-03T06:01:29;101296.00;;;19.30
68939;BMP180;59064;45.294;11.816;2022-09-03T06:06:25;101296.80;;;19.46
68939;BMP180;59064;45.294;11.816;2022-09-03T06:08:57;101300.20;;;19.58
68939;BMP180;59064;45.294;11.816;2022-09-03T06:11:25;101289.40;;;19.60
68939;BMP180;59064;45.294;11.816;2022-09-03T06:13:58;101280.40;;;19.70
68939;BMP180;59064;45.294;11.816;2022-09-03T06:16:28;101283.20;;;19.80
68939;BMP180;59064;45.294;11.816;2022-09-03T06:18:54;101274.00;;;19.86
68939;BMP180;59064;45.294;11.816;2022-09-03T06:21:21;101270.60;;;19.92
68939;BMP180;59064;45.294;11.816;2022-09-03T06:23:52;101273.80;;;20.00
68939;BMP180;59064;45.294;11.816;2022-09-03T06:26:21;101275.60;;;20.20
68939;BMP180;59064;45.294;11.816;2022-09-03T06:28:47;101278.00;;;20.40
68939;BMP180;59064;45.294;11.816;2022-09-03T06:31:18;101275.40;;;20.50
68939;BMP180;59064;45.294;11.816;2022-09-03T06:33:45;101271.20;;;20.60
68939;BMP180;59064;45.294;11.816;2022-09-03T06:36:15;101262.80;;;20.80
68939;BMP180;59064;45.294;11.816;2022-09-03T06:38:43;101262.00;;;20.80
68939;BMP180;59064;45.294;11.816;2022-09-03T06:41:14;101259.20;;;20.90
68939;BMP180;59064;45.294;11.816;2022-09-03T06:43:54;101255.80;;;20.90
68939;BMP180;59064;45.294;11.816;2022-09-03T06:46:23;101257.80;;;20.90
68939;BMP180;59064;45.294;11.816;2022-09-03T06:48:50;101269.20;;;20.80
68939;BMP180;59064;45.294;11.816;2022-09-03T06:51:22;101274.80;;;20.78
68939;BMP180;59064;45.294;11.816;2022-09-03T06:53:52;101278.80;;;20.70
68939;BMP180;59064;45.294;11.816;2022-09-03T06:56:21;101278.00;;;20.74
68939;BMP180;59064;45.294;11.816;2022-09-03T06:58:53;101283.80;;;20.80
68939;BMP180;59064;45.294;11.816;2022-09-03T07:01:28;101287.00;;;20.82
68939;BMP180;59064;45.294;11.816;2022-09-03T07:04:01;101296.60;;;21.00
68939;BMP180;59064;45.294;11.816;2022-09-03T07:06:31;101305.80;;;21.10
68939;BMP180;59064;45.294;11.816;2022-09-03T07:08:57;101308.40;;;21.10
68939;BMP180;59064;45.294;11.816;2022-09-03T07:11:29;101315.20;;;21.20
68939;BMP180;59064;45.294;11.816;2022-09-03T07:13:57;101316.40;;;21.30
68939;BMP180;59064;45.294;11.816;2022-09-03T07:16:33;101321.20;;;21.40
68939;BMP180;59064;45.294;11.816;2022-09-03T07:19:00;101327.40;;;21.58
68939;BMP180;59064;45.294;11.816;2022-09-03T07:21:29;101329.40;;;21.74
68939;BMP180;59064;45.294;11.816;2022-09-03T07:23:56;101326.60;;;21.90
68939;BMP180;59064;45.294;11.816;2022-09-03T07:26:27;101328.40;;;22.00
68939;BMP180;59064;45.294;11.816;2022-09-03T07:28:55;101327.00;;;22.10
68939;BMP180;59064;45.294;11.816;2022-09-03T07:31:25;101325.20;;;22.00
68939;BMP180;59064;45.294;11.816;2022-09-03T07:33:59;101323.80;;;22.00
68939;BMP180;59064;45.294;11.816;2022-09-03T07:36:28;101321.60;;;22.10
68939;BMP180;59064;45.294;11.816;2022-09-03T07:38:56;101324.40;;;22.20
68939;BMP180;59064;45.294;11.816;2022-09-03T07:41:23;101320.80;;;22.50
68939;BMP180;59064;45.294;11.816;2022-09-03T07:43:51;101319.00;;;22.52
68939;BMP180;59064;45.294;11.816;2022-09-03T07:46:20;101316.80;;;22.60
68939;BMP180;59064;45.294;11.816;2022-09-03T07:48:55;101322.40;;;22.80
68939;BMP180;59064;45.294;11.816;2022-09-03T07:51:25;101319.00;;;22.96
68939;BMP180;59064;45.294;11.816;2022-09-03T07:53:54;101324.00;;;23.10
68939;BMP180;59064;45.294;11.816;2022-09-03T07:56:20;101325.00;;;23.20
68939;BMP180;59064;45.294;11.816;2022-09-03T07:58:46;101329.60;;;23.50
68939;BMP180;59064;45.294;11.816;2022-09-03T08:01:17;101325.40;;;23.70
68939;BMP180;59064;45.294;11.816;2022-09-03T08:03:46;101333.60;;;23.88
68939;BMP180;59064;45.294;11.816;2022-09-03T08:06:13;101341.80;;;24.00
68939;BMP180;59064;45.294;11.816;2022-09-03T08:08:39;101349.00;;;24.06
68939;BMP180;59064;45.294;11.816;2022-09-03T08:11:17;101351.80;;;24.00
68939;BMP180;59064;45.294;11.816;2022-09-03T08:13:53;101356.40;;;24.00
68939;BMP180;59064;45.294;11.816;2022-09-03T08:16:19;101353.80;;;24.00
68939;BMP180;59064;45.294;11.816;2022-09-03T08:18:45;101361.80;;;24.00
68939;BMP180;59064;45.294;11.816;2022-09-03T08:21:36;101358.40;;;23.90
68939;BMP180;59064;45.294;11.816;2022-09-03T08:24:02;101354.40;;;23.90
68939;BMP180;59064;45.294;11.816;2022-09-03T08:26:31;101356.20;;;24.04
68939;BMP180;59064;45.294;11.816;2022-09-03T08:28:58;101359.60;;;24.30
68939;BMP180;59064;45.294;11.816;2022-09-03T08:31:24;101360.40;;;24.40
68939;BMP180;59064;45.294;11.816;2022-09-03T08:33:52;101369.40;;;24.60
68939;BMP180;59064;45.294;11.816;2022-09-03T08:36:27;101375.80;;;24.60
68939;BMP180;59064;45.294;11.816;2022-09-03T08:38:58;101373.60;;;24.60
68939;BMP180;59064;45.294;11.816;2022-09-03T08:41:57;101378.40;;;24.70
68939;BMP180;59064;45.294;11.816;2022-09-03T08:44:43;101382.40;;;24.80
68939;BMP180;59064;45.294;11.816;2022-09-03T08:50:30;101386.60;;;25.00
68939;BMP180;59064;45.294;11.816;2022-09-03T08:53:06;101393.20;;;25.10
68939;BMP180;59064;45.294;11.816;2022-09-03T08:58:15;101385.80;;;25.56
68939;BMP180;59064;45.294;11.816;2022-09-03T09:06:56;101380.60;;;26.00
68939;BMP180;59064;45.294;11.816;2022-09-03T09:12:30;101375.40;;;26.22
68939;BMP180;59064;45.294;11.816;2022-09-03T09:23:11;101383.40;;;26.78
68939;BMP180;59064;45.294;11.816;2022-09-03T09:25:48;101389.00;;;27.12
68939;BMP180;59064;45.294;11.816;2022-09-03T09:30:47;101393.60;;;27.60
68939;BMP180;59064;45.294;11.816;2022-09-03T09:33:17;101394.00;;;27.60
68939;BMP180;59064;45.294;11.816;2022-09-03T09:35:44;101387.40;;;27.70
68939;BMP180;59064;45.294;11.816;2022-09-03T09:38:11;101386.60;;;27.70
68939;BMP180;59064;45.294;11.816;2022-09-03T09:40:40;101394.40;;;27.84
68939;BMP180;59064;45.294;11.816;2022-09-03T09:43:18;101391.60;;;28.00
68939;BMP180;59064;45.294;11.816;2022-09-03T09:45:51;101397.60;;;28.10
68939;BMP180;59064;45.294;11.816;2022-09-03T09:48:31;101406.20;;;28.44
68939;BMP180;59064;45.294;11.816;2022-09-03T09:51:10;101399.60;;;28.40
68939;BMP180;59064;45.294;11.816;2022-09-03T09:53:37;101394.00;;;28.20
68939;BMP180;59064;45.294;11.816;2022-09-03T09:56:06;101393.00;;;28.20
68939;BMP180;59064;45.294;11.816;2022-09-03T09:58:34;101395.40;;;28.40
68939;BMP180;59064;45.294;11.816;2022-09-03T10:01:13;101395.20;;;28.78
68939;BMP180;59064;45.294;11.816;2022-09-03T10:04:13;101392.80;;;28.98
68939;BMP180;59064;45.294;11.816;2022-09-03T10:07:20;101396.40;;;28.72
68939;BMP180;59064;45.294;11.816;2022-09-03T10:09:44;101399.40;;;28.30
68939;BMP180;59064;45.294;11.816;2022-09-03T10:13:01;101407.60;;;28.50
68939;BMP180;59064;45.294;11.816;2022-09-03T10:15:47;101405.80;;;28.84
68939;BMP180;59064;45.294;11.816;2022-09-03T10:24:46;101411.00;;;29.10
68939;BMP180;59064;45.294;11.816;2022-09-03T10:27:15;101417.80;;;28.86
68939;BMP180;59064;45.294;11.816;2022-09-03T10:29:43;101410.60;;;28.70
68939;BMP180;59064;45.294;11.816;2022-09-03T10:35:30;101409.80;;;28.70
68939;BMP180;59064;45.294;11.816;2022-09-03T10:38:27;101401.20;;;28.50
68939;BMP180;59064;45.294;11.816;2022-09-03T10:44:01;101401.80;;;28.50
68939;BMP180;59064;45.294;11.816;2022-09-03T10:49:38;101398.40;;;28.60
68939;BMP180;59064;45.294;11.816;2022-09-03T10:56:01;101396.40;;;28.12
68939;BMP180;59064;45.294;11.816;2022-09-03T10:59:12;101396.80;;;28.20
68939;BMP180;59064;45.294;11.816;2022-09-03T11:07:27;101377.60;;;28.00
68939;BMP180;59064;45.294;11.816;2022-09-03T11:10:22;101384.60;;;27.90
68939;BMP180;59064;45.294;11.816;2022-09-03T11:13:32;101381.60;;;27.90
68939;BMP180;59064;45.294;11.816;2022-09-03T11:16:12;101377.00;;;27.84
68939;BMP180;59064;45.294;11.816;2022-09-03T11:19:04;101372.40;;;27.80
68939;BMP180;59064;45.294;11.816;2022-09-03T11:21:31;101375.80;;;27.60
68939;BMP180;59064;45.294;11.816;2022-09-03T11:24:13;101388.40;;;27.60
68939;BMP180;59064;45.294;11.816;2022-09-03T11:26:43;101382.80;;;27.48
68939;BMP180;59064;45.294;11.816;2022-09-03T11:29:19;101377.40;;;27.30
68939;BMP180;59064;45.294;11.816;2022-09-03T11:32:04;101376.60;;;27.20
68939;BMP180;59064;45.294;11.816;2022-09-03T11:34:45;101376.20;;;27.12
68939;BMP180;59064;45.294;11.816;2022-09-03T11:37:27;101384.00;;;27.56
68939;BMP180;59064;45.294;11.816;2022-09-03T11:40:17;101377.20;;;27.80
68939;BMP180;59064;45.294;11.816;2022-09-03T11:42:45;101381.40;;;27.60
68939;BMP180;59064;45.294;11.816;2022-09-03T11:47:51;101368.60;;;27.80
68939;BMP180;59064;45.294;11.816;2022-09-03T11:50:24;101372.00;;;27.90
68939;BMP180;59064;45.294;11.816;2022-09-03T11:53:08;101374.40;;;28.26
68939;BMP180;59064;45.294;11.816;2022-09-03T11:58:29;101377.00;;;28.40
68939;BMP180;59064;45.294;11.816;2022-09-03T12:00:57;101380.80;;;28.40
68939;BMP180;59064;45.294;11.816;2022-09-03T12:03:49;101372.80;;;28.06
68939;BMP180;59064;45.294;11.816;2022-09-03T12:09:37;101389.40;;;27.50
68939;BMP180;59064;45.294;11.816;2022-09-03T12:15:14;101391.00;;;27.10
68939;BMP180;59064;45.294;11.816;2022-09-03T12:18:08;101387.20;;;26.90
68939;BMP180;59064;45.294;11.816;2022-09-03T12:20:47;101385.00;;;27.00
68939;BMP180;59064;45.294;11.816;2022-09-03T12:23:43;101382.80;;;27.10
68939;BMP180;59064;45.294;11.816;2022-09-03T12:26:27;101376.80;;;27.30
68939;BMP180;59064;45.294;11.816;2022-09-03T12:28:59;101375.00;;;27.40
68939;BMP180;59064;45.294;11.816;2022-09-03T12:31:31;101375.80;;;27.40
68939;BMP180;59064;45.294;11.816;2022-09-03T12:34:14;101371.80;;;27.60
68939;BMP180;59064;45.294;11.816;2022-09-03T12:36:52;101375.20;;;27.60
68939;BMP180;59064;45.294;11.816;2022-09-03T12:39:27;101375.20;;;27.50
68939;BMP180;59064;45.294;11.816;2022-09-03T12:42:11;101375.20;;;27.50
68939;BMP180;59064;45.294;11.816;2022-09-03T12:44:40;101374.20;;;27.60
68939;BMP180;59064;45.294;11.816;2022-09-03T12:47:19;101368.80;;;27.60
68939;BMP180;59064;45.294;11.816;2022-09-03T12:49:52;101365.00;;;27.60
68939;BMP180;59064;45.294;11.816;2022-09-03T12:55:41;101358.60;;;27.30
68939;BMP180;59064;45.294;11.816;2022-09-03T13:00:58;101349.00;;;27.10
68939;BMP180;59064;45.294;11.816;2022-09-03T13:04:08;101344.00;;;27.00
68939;BMP180;59064;45.294;11.816;2022-09-03T13:07:00;101345.40;;;27.04
68939;BMP180;59064;45.294;11.816;2022-09-03T13:09:29;101336.20;;;27.30
68939;BMP180;59064;45.294;11.816;2022-09-03T13:11:57;101331.20;;;27.50
68939;BMP180;59064;45.294;11.816;2022-09-03T13:14:29;101329.80;;;27.60
68939;BMP180;59064;45.294;11.816;2022-09-03T13:17:29;101333.00;;;27.70
68939;BMP180;59064;45.294;11.816;2022-09-03T13:29:12;101323.00;;;28.00
68939;BMP180;59064;45.294;11.816;2022-09-03T13:32:01;101315.20;;;28.10
68939;BMP180;59064;45.294;11.816;2022-09-03T13:34:48;101316.20;;;28.10
68939;BMP180;59064;45.294;11.816;2022-09-03T13:40:13;101315.40;;;28.20
68939;BMP180;59064;45.294;11.816;2022-09-03T13:42:55;101307.60;;;27.92
68939;BMP180;59064;45.294;11.816;2022-09-03T13:45:38;101308.60;;;27.74
68939;BMP180;59064;45.294;11.816;2022-09-03T13:48:43;101304.40;;;27.60
68939;BMP180;59064;45.294;11.816;2022-09-03T13:51:37;101297.60;;;27.50
68939;BMP180;59064;45.294;11.816;2022-09-03T13:54:14;101293.00;;;27.40
68939;BMP180;59064;45.294;11.816;2022-09-03T13:57:06;101288.20;;;27.40
68939;BMP180;59064;45.294;11.816;2022-09-03T14:05:40;101269.20;;;27.30
68939;BMP180;59064;45.294;11.816;2022-09-03T14:11:39;101271.80;;;27.20
68939;BMP180;59064;45.294;11.816;2022-09-03T14:22:43;101278.00;;;27.40
68939;BMP180;59064;45.294;11.816;2022-09-03T14:25:18;101276.00;;;27.52
68939;BMP180;59064;45.294;11.816;2022-09-03T14:27:47;101272.60;;;27.80
68939;BMP180;59064;45.294;11.816;2022-09-03T14:31:18;101270.20;;;27.94
68939;BMP180;59064;45.294;11.816;2022-09-03T14:39:46;101266.40;;;28.64
68939;BMP180;59064;45.294;11.816;2022-09-03T14:55:06;101283.20;;;29.40
68939;BMP180;59064;45.294;11.816;2022-09-03T14:58:15;101283.80;;;29.36
68939;BMP180;59064;45.294;11.816;2022-09-03T15:01:31;101285.80;;;29.50
68939;BMP180;59064;45.294;11.816;2022-09-03T15:07:27;101277.60;;;29.40
68939;BMP180;59064;45.294;11.816;2022-09-03T15:12:52;101280.80;;;29.80
68939;BMP180;59064;45.294;11.816;2022-09-03T15:18:29;101284.00;;;30.66
68939;BMP180;59064;45.294;11.816;2022-09-03T15:24:18;101288.80;;;31.00
68939;BMP180;59064;45.294;11.816;2022-09-03T15:30:20;101279.20;;;30.80
68939;BMP180;59064;45.294;11.816;2022-09-03T15:38:36;101279.20;;;30.80
68939;BMP180;59064;45.294;11.816;2022-09-03T15:43:59;101270.20;;;31.06
68939;BMP180;59064;45.294;11.816;2022-09-03T15:52:30;101275.00;;;31.70
68939;BMP180;59064;45.294;11.816;2022-09-03T15:55:39;101281.80;;;32.10
68939;BMP180;59064;45.294;11.816;2022-09-03T15:58:36;101280.00;;;31.52
68939;BMP180;59064;45.294;11.816;2022-09-03T16:07:07;101281.20;;;31.50
68939;BMP180;59064;45.294;11.816;2022-09-03T16:10:03;101275.00;;;31.60
68939;BMP180;59064;45.294;11.816;2022-09-03T16:13:08;101274.80;;;31.70
68939;BMP180;59064;45.294;11.816;2022-09-03T16:22:20;101274.60;;;31.40
68939;BMP180;59064;45.294;11.816;2022-09-03T16:25:02;101270.80;;;31.30
68939;BMP180;59064;45.294;11.816;2022-09-03T16:47:48;101287.20;;;28.30
68939;BMP180;59064;45.294;11.816;2022-09-03T16:53:39;101293.00;;;28.24
68939;BMP180;59064;45.294;11.816;2022-09-03T16:56:31;101295.00;;;28.34
68939;BMP180;59064;45.294;11.816;2022-09-03T17:05:35;101306.80;;;27.90
68939;BMP180;59064;45.294;11.816;2022-09-03T17:08:27;101306.60;;;27.70
68939;BMP180;59064;45.294;11.816;2022-09-03T17:11:47;101307.60;;;27.42
68939;BMP180;59064;45.294;11.816;2022-09-03T17:20:28;101306.40;;;26.26
68939;BMP180;59064;45.294;11.816;2022-09-03T17:26:10;101302.20;;;25.64
68939;BMP180;59064;45.294;11.816;2022-09-03T17:31:45;101315.00;;;25.10
68939;BMP180;59064;45.294;11.816;2022-09-03T17:46:29;101304.80;;;24.00
68939;BMP180;59064;45.294;11.816;2022-09-03T17:49:01;101307.20;;;23.80
68939;BMP180;59064;45.294;11.816;2022-09-03T17:52:04;101312.20;;;23.70
68939;BMP180;59064;45.294;11.816;2022-09-03T17:54:43;101312.60;;;23.50
68939;BMP180;59064;45.294;11.816;2022-09-03T17:58:08;101312.40;;;23.40
68939;BMP180;59064;45.294;11.816;2022-09-03T18:06:09;101329.40;;;23.08
68939;BMP180;59064;45.294;11.816;2022-09-03T18:11:39;101330.20;;;22.90
68939;BMP180;59064;45.294;11.816;2022-09-03T18:16:53;101342.00;;;22.80
68939;BMP180;59064;45.294;11.816;2022-09-03T18:19:43;101343.00;;;22.70
68939;BMP180;59064;45.294;11.816;2022-09-03T18:22:47;101346.00;;;22.60
68939;BMP180;59064;45.294;11.816;2022-09-03T18:25:34;101349.80;;;22.54
68939;BMP180;59064;45.294;11.816;2022-09-03T18:28:33;101358.80;;;22.50
68939;BMP180;59064;45.294;11.816;2022-09-03T18:31:19;101354.60;;;22.40
68939;BMP180;59064;45.294;11.816;2022-09-03T18:34:03;101358.20;;;22.40
68939;BMP180;59064;45.294;11.816;2022-09-03T18:36:48;101361.60;;;22.30
68939;BMP180;59064;45.294;11.816;2022-09-03T18:39:32;101371.20;;;22.30
68939;BMP180;59064;45.294;11.816;2022-09-03T18:55:14;101399.80;;;22.10
68939;BMP180;59064;45.294;11.816;2022-09-03T19:01:09;101396.80;;;21.80
68939;BMP180;59064;45.294;11.816;2022-09-03T19:04:09;101396.60;;;21.80
68939;BMP180;59064;45.294;11.816;2022-09-03T19:07:08;101395.20;;;21.70
68939;BMP180;59064;45.294;11.816;2022-09-03T19:10:15;101392.80;;;21.70
68939;BMP180;59064;45.294;11.816;2022-09-03T19:13:33;101391.20;;;21.70
68939;BMP180;59064;45.294;11.816;2022-09-03T19:22:35;101387.40;;;21.50
68939;BMP180;59064;45.294;11.816;2022-09-03T19:25:24;101394.60;;;21.50
68939;BMP180;59064;45.294;11.816;2022-09-03T19:28:18;101389.80;;;21.40
68939;BMP180;59064;45.294;11.816;2022-09-03T19:34:43;101391.40;;;21.36
68939;BMP180;59064;45.294;11.816;2022-09-03T19:46:57;101396.60;;;21.20
68939;BMP180;59064;45.294;11.816;2022-09-03T19:52:57;101401.00;;;21.10
68939;BMP180;59064;45.294;11.816;2022-09-03T19:58:42;101401.40;;;21.00
68939;BMP180;59064;45.294;11.816;2022-09-03T20:01:36;101403.80;;;20.90
68939;BMP180;59064;45.294;11.816;2022-09-03T20:04:39;101407.60;;;20.90